createdAt,value
2023-04-16T00:01:35.549Z,2.93
2023-04-16T00:04:06.404Z,3.17
2023-04-16T00:06:35.572Z,2.53
2023-04-16T00:09:04.483Z,3.00
2023-04-16T00:11:33.214Z,3.17
2023-04-16T00:14:01.992Z,2.83
2023-04-16T00:16:31.004Z,2.73
2023-04-16T00:18:59.770Z,2.73
2023-04-16T00:21:30.247Z,2.87
2023-04-16T00:23:59.101Z,2.93
2023-04-16T00:26:27.861Z,2.80
2023-04-16T00:28:57.070Z,3.20
2023-04-16T00:31:30.367Z,3.30
2023-04-16T00:33:59.741Z,3.93
2023-04-16T00:36:30.652Z,2.87
2023-04-16T00:38:59.391Z,2.90
2023-04-16T00:41:28.217Z,2.97
2023-04-16T00:43:56.988Z,3.03
2023-04-16T00:46:26.677Z,3.00
2023-04-16T00:48:56.507Z,2.90
2023-04-16T00:51:25.497Z,3.40
2023-04-16T00:53:55.800Z,3.67
2023-04-16T00:56:25.747Z,3.60
2023-04-16T00:58:56.360Z,3.50
2023-04-16T01:01:25.099Z,3.40
2023-04-16T01:03:54.128Z,3.37
2023-04-16T01:06:22.938Z,3.20
2023-04-16T01:08:51.750Z,3.40
2023-04-16T01:11:21.938Z,3.20
2023-04-16T01:13:50.691Z,2.80
2023-04-16T01:16:19.482Z,3.20
2023-04-16T01:18:48.751Z,2.80
2023-04-16T01:21:20.997Z,2.93
2023-04-16T01:23:49.743Z,3.10
2023-04-16T01:26:18.511Z,3.00
2023-04-16T01:28:47.308Z,2.73
2023-04-16T01:31:16.353Z,3.03
2023-04-16T01:34:05.715Z,2.93
2023-04-16T01:36:36.087Z,2.70
2023-04-16T01:39:05.001Z,3.10
2023-04-16T01:41:33.763Z,2.80
2023-04-16T01:44:02.515Z,2.70
2023-04-16T01:46:33.655Z,2.70
2023-04-16T01:49:03.314Z,2.90
2023-04-16T01:51:32.317Z,3.00
2023-04-16T01:54:03.323Z,3.07
2023-04-16T01:56:32.141Z,2.70
2023-04-16T01:59:01.077Z,3.03
2023-04-16T02:01:35.996Z,3.80
2023-04-16T02:04:05.695Z,3.10
2023-04-16T02:06:34.498Z,3.60
2023-04-16T02:09:05.417Z,3.20
2023-04-16T02:11:34.503Z,3.57
2023-04-16T02:14:03.314Z,3.00
2023-04-16T02:16:32.167Z,3.20
2023-04-16T02:19:09.021Z,2.83
2023-04-16T02:21:38.562Z,2.87
2023-04-16T02:24:08.944Z,2.97
2023-04-16T02:26:37.727Z,3.17
2023-04-16T02:29:12.749Z,3.10
2023-04-16T02:31:46.922Z,3.00
2023-04-16T02:34:16.676Z,3.00
2023-04-16T02:36:45.535Z,3.40
2023-04-16T02:39:15.798Z,3.07
2023-04-16T02:41:44.619Z,3.30
2023-04-16T02:44:13.401Z,3.47
2023-04-16T02:46:42.168Z,3.10
2023-04-16T02:49:11.015Z,3.43
2023-04-16T02:51:39.808Z,3.47
2023-04-16T02:54:08.568Z,3.10
2023-04-16T02:56:38.764Z,2.83
2023-04-16T02:59:07.948Z,2.77
2023-04-16T03:01:37.156Z,2.97
2023-04-16T03:04:06.352Z,2.83
2023-04-16T03:06:35.080Z,2.77
2023-04-16T03:09:03.824Z,2.63
2023-04-16T03:11:32.568Z,3.00
2023-04-16T03:14:02.811Z,3.03
2023-04-16T03:16:31.600Z,2.60
2023-04-16T03:19:00.392Z,2.80
2023-04-16T03:21:29.105Z,2.83
2023-04-16T03:23:57.867Z,2.83
2023-04-16T03:26:26.579Z,3.07
2023-04-16T03:28:56.202Z,2.97
2023-04-16T03:31:28.051Z,6.70
2023-04-16T03:33:56.780Z,7.07
2023-04-16T03:36:27.252Z,6.20
2023-04-16T03:38:57.480Z,9.00
2023-04-16T03:41:26.398Z,7.73
2023-04-16T03:43:55.141Z,8.13
2023-04-16T03:46:24.581Z,6.20
2023-04-16T03:48:55.808Z,5.90
2023-04-16T03:51:25.079Z,5.30
2023-04-16T03:53:54.436Z,4.80
2023-04-16T03:56:24.280Z,7.07
2023-04-16T03:58:54.451Z,10.57
2023-04-16T04:01:23.214Z,8.83
2023-04-16T04:03:55.066Z,7.07
2023-04-16T04:06:23.955Z,6.73
2023-04-16T04:08:52.721Z,6.00
2023-04-16T04:11:21.533Z,5.57
2023-04-16T04:13:50.405Z,5.00
2023-04-16T04:16:19.174Z,5.30
2023-04-16T04:18:47.983Z,4.63
2023-04-16T04:21:18.216Z,4.53
2023-04-16T04:23:46.952Z,4.00
2023-04-16T04:26:17.354Z,3.83
2023-04-16T04:28:47.235Z,3.13
2023-04-16T04:31:20.033Z,3.20
2023-04-16T04:33:48.825Z,3.53
2023-04-16T04:36:19.129Z,3.07
2023-04-16T04:38:47.942Z,2.90
2023-04-16T04:41:17.522Z,2.97
2023-04-16T04:43:46.240Z,2.83
2023-04-16T04:46:15.322Z,3.47
2023-04-16T04:48:44.151Z,3.70
2023-04-16T04:51:12.939Z,3.30
2023-04-16T04:53:44.870Z,3.10
2023-04-16T04:56:13.604Z,2.90
2023-04-16T04:58:43.059Z,3.40
2023-04-16T05:01:12.006Z,3.50
2023-04-16T05:03:40.961Z,3.70
2023-04-16T05:06:09.869Z,3.30
2023-04-16T05:08:38.709Z,3.00
2023-04-16T05:11:08.905Z,3.10
2023-04-16T05:13:37.665Z,3.20
2023-04-16T05:16:07.073Z,2.80
2023-04-16T05:18:35.824Z,3.00
2023-04-16T05:21:04.622Z,2.70
2023-04-16T05:23:33.434Z,2.50
2023-04-16T05:26:02.153Z,3.03
2023-04-16T05:28:32.545Z,2.40
2023-04-16T05:31:01.388Z,2.27
2023-04-16T05:33:30.199Z,2.40
2023-04-16T05:35:58.934Z,2.57
2023-04-16T05:38:27.701Z,2.50
2023-04-16T05:40:56.739Z,2.43
2023-04-16T05:43:25.508Z,2.70
2023-04-16T05:45:55.761Z,3.40
2023-04-16T05:48:24.570Z,3.70
2023-04-16T05:50:53.992Z,5.13
2023-04-16T05:53:24.026Z,4.97
2023-04-16T05:55:52.950Z,5.23
2023-04-16T05:58:21.669Z,4.43
2023-04-16T06:00:50.495Z,3.53
2023-04-16T06:03:20.783Z,4.33
2023-04-16T06:05:49.640Z,4.07
2023-04-16T06:08:18.408Z,4.50
2023-04-16T06:10:48.569Z,4.20
2023-04-16T06:13:17.342Z,4.40
2023-04-16T06:15:46.159Z,3.63
2023-04-16T06:18:14.939Z,2.60
2023-04-16T06:20:45.149Z,2.93
2023-04-16T06:23:13.922Z,2.90
2023-04-16T06:25:42.649Z,3.27
2023-04-16T06:28:11.372Z,3.43
2023-04-16T06:30:42.724Z,3.60
2023-04-16T06:33:12.817Z,4.20
2023-04-16T06:35:41.608Z,4.13
2023-04-16T06:38:11.819Z,4.20
2023-04-16T06:40:40.636Z,3.20
2023-04-16T06:43:09.294Z,1.80
2023-04-16T06:45:38.064Z,1.70
2023-04-16T06:48:07.424Z,1.50
2023-04-16T06:50:36.281Z,1.50
2023-04-16T06:53:05.097Z,1.50
2023-04-16T06:55:35.261Z,1.57
2023-04-16T06:58:03.992Z,1.30
2023-04-16T07:00:32.908Z,1.73
2023-04-16T07:03:03.544Z,1.70
2023-04-16T07:05:32.487Z,1.63
2023-04-16T07:08:01.538Z,1.37
2023-04-16T07:10:30.305Z,1.50
2023-04-16T07:13:01.633Z,1.53
2023-04-16T07:15:30.554Z,1.27
2023-04-16T07:17:59.296Z,1.43
2023-04-16T07:20:28.007Z,5.20
2023-04-16T07:22:56.800Z,1.80
2023-04-16T07:25:25.628Z,1.40
2023-04-16T07:27:54.341Z,1.47
2023-04-16T07:30:24.600Z,1.40
2023-04-16T07:32:55.950Z,1.73
2023-04-16T07:35:24.801Z,1.40
2023-04-16T07:37:53.501Z,1.40
2023-04-16T07:40:22.200Z,1.67
2023-04-16T07:42:51.040Z,1.43
2023-04-16T07:45:20.205Z,1.70
2023-04-16T07:47:50.363Z,1.37
2023-04-16T07:50:19.628Z,1.70
2023-04-16T07:52:49.521Z,1.50
2023-04-16T07:55:18.319Z,1.70
2023-04-16T07:57:49.578Z,1.53
2023-04-16T08:00:18.629Z,1.50
2023-04-16T08:02:47.556Z,1.50
2023-04-16T08:05:18.020Z,1.90
2023-04-16T08:07:46.957Z,1.40
2023-04-16T08:10:15.838Z,1.50
2023-04-16T08:12:44.659Z,1.70
2023-04-16T08:15:13.669Z,1.80
2023-04-16T08:17:42.477Z,1.70
2023-04-16T08:20:14.515Z,1.50
2023-04-16T08:22:47.446Z,1.87
2023-04-16T08:25:16.495Z,1.70
2023-04-16T08:27:47.822Z,1.63
2023-04-16T08:30:16.915Z,1.67
2023-04-16T08:32:47.974Z,1.53
2023-04-16T08:35:18.640Z,1.60
2023-04-16T08:37:48.791Z,1.60
2023-04-16T08:40:19.423Z,1.40
2023-04-16T08:42:54.352Z,1.40
2023-04-16T08:45:23.222Z,1.60
2023-04-16T08:47:53.174Z,1.67
2023-04-16T08:50:25.750Z,1.40
2023-04-16T08:53:00.865Z,1.60
2023-04-16T08:55:37.737Z,1.73
2023-04-16T08:58:10.827Z,1.50
2023-04-16T09:00:42.138Z,1.50
2023-04-16T09:03:11.655Z,1.42
2023-04-16T09:05:40.876Z,1.30
2023-04-16T09:08:11.197Z,1.55
2023-04-16T09:10:39.979Z,1.77
2023-04-16T09:13:13.604Z,2.03
2023-04-16T09:15:46.149Z,1.50
2023-04-16T09:18:14.919Z,1.92
2023-04-16T09:20:43.749Z,1.63
2023-04-16T09:23:14.111Z,1.90
2023-04-16T09:25:42.862Z,2.17
2023-04-16T09:28:13.083Z,1.63
2023-04-16T09:30:42.821Z,1.75
2023-04-16T09:33:16.883Z,1.80
2023-04-16T09:35:50.126Z,1.58
2023-04-16T09:38:20.948Z,1.67
2023-04-16T09:40:49.835Z,1.63
2023-04-16T09:43:19.858Z,1.63
2023-04-16T09:45:52.635Z,1.85
2023-04-16T09:48:31.132Z,1.88
2023-04-16T09:51:00.496Z,1.80
2023-04-16T09:53:32.048Z,1.70
2023-04-16T09:56:01.685Z,1.90
2023-04-16T09:58:30.834Z,1.85
2023-04-16T10:01:03.221Z,1.73
2023-04-16T10:03:32.977Z,1.80
2023-04-16T10:06:03.375Z,1.60
2023-04-16T10:08:33.608Z,1.77
2023-04-16T10:11:03.528Z,1.75
2023-04-16T10:13:33.622Z,1.77
2023-04-16T10:16:02.596Z,1.70
2023-04-16T10:18:31.666Z,1.63
2023-04-16T10:21:00.982Z,2.08
2023-04-16T10:23:29.901Z,1.63
2023-04-16T10:26:00.670Z,1.70
2023-04-16T10:28:30.260Z,1.90
2023-04-16T10:30:59.684Z,1.83
2023-04-16T10:33:30.262Z,1.88
2023-04-16T10:36:12.952Z,2.13
2023-04-16T10:38:43.388Z,1.83
2023-04-16T10:41:13.644Z,1.80
2023-04-16T10:43:44.941Z,1.60
2023-04-16T10:46:24.706Z,1.90
2023-04-16T10:48:55.893Z,1.80
2023-04-16T10:51:30.285Z,1.48
2023-04-16T10:53:59.457Z,1.70
2023-04-16T10:56:33.224Z,1.42
2023-04-16T10:59:02.065Z,1.58
2023-04-16T11:01:34.620Z,1.40
2023-04-16T11:04:24.013Z,1.50
2023-04-16T11:07:03.555Z,1.70
2023-04-16T11:09:52.527Z,1.60
2023-04-16T11:12:24.347Z,1.60
2023-04-16T11:14:54.683Z,1.67
2023-04-16T11:17:24.128Z,1.45
2023-04-16T11:19:53.734Z,1.50
2023-04-16T11:22:22.762Z,1.60
2023-04-16T11:24:56.398Z,1.50
2023-04-16T11:27:27.503Z,1.70
2023-04-16T11:30:00.980Z,1.50
2023-04-16T11:32:32.375Z,1.52
2023-04-16T11:35:03.854Z,1.40
2023-04-16T11:37:37.183Z,1.60
2023-04-16T11:40:08.398Z,1.48
2023-04-16T11:42:40.743Z,1.48
2023-04-16T11:45:11.203Z,1.70
2023-04-16T11:47:45.612Z,1.60
2023-04-16T11:50:22.116Z,1.63
2023-04-16T11:52:51.481Z,1.45
2023-04-16T11:55:20.863Z,1.27
2023-04-16T11:57:52.270Z,1.50
2023-04-16T12:00:24.657Z,1.45
2023-04-16T12:02:55.359Z,1.35
2023-04-16T12:05:32.399Z,1.40
2023-04-16T12:08:02.295Z,1.40
2023-04-16T12:10:32.637Z,1.35
2023-04-16T12:13:16.739Z,1.50
2023-04-16T12:15:49.949Z,1.40
2023-04-16T12:18:20.460Z,1.50
2023-04-16T12:20:49.266Z,1.40
2023-04-16T12:23:28.712Z,1.20
2023-04-16T12:26:02.828Z,1.42
2023-04-16T12:28:34.905Z,1.58
2023-04-16T12:31:04.286Z,1.60
2023-04-16T12:33:33.385Z,1.58
2023-04-16T12:36:05.098Z,1.58
2023-04-16T12:38:33.949Z,1.30
2023-04-16T12:41:04.874Z,1.60
2023-04-16T12:43:35.124Z,1.55
2023-04-16T12:46:04.455Z,1.70
2023-04-16T12:48:33.973Z,1.73
2023-04-16T12:51:02.856Z,1.80
2023-04-16T12:53:31.694Z,1.70
2023-04-16T12:56:00.808Z,1.50
2023-04-16T12:58:29.635Z,1.50
2023-04-16T13:01:00.081Z,1.60
2023-04-16T13:03:28.949Z,1.67
2023-04-16T13:05:58.152Z,1.70
2023-04-16T13:08:26.960Z,1.85
2023-04-16T13:10:55.758Z,1.67
2023-04-16T13:13:24.479Z,1.70
2023-04-16T13:15:53.972Z,1.80
2023-04-16T13:18:24.220Z,1.90
2023-04-16T13:20:52.998Z,1.90
2023-04-16T13:23:21.989Z,1.60
2023-04-16T13:25:50.790Z,1.80
2023-04-16T13:28:19.631Z,1.77
2023-04-16T13:30:48.427Z,2.05
2023-04-16T13:33:17.190Z,1.60
2023-04-16T13:35:47.410Z,1.60
2023-04-16T13:38:16.446Z,1.63
2023-04-16T13:40:45.384Z,1.70
2023-04-16T13:43:16.743Z,1.75
2023-04-16T13:45:45.584Z,1.63
2023-04-16T13:48:14.344Z,1.92
2023-04-16T13:50:43.089Z,1.83
2023-04-16T13:53:13.324Z,1.77
2023-04-16T13:55:42.196Z,2.00
2023-04-16T13:58:11.708Z,1.83
2023-04-16T14:00:40.539Z,2.00
2023-04-16T14:03:09.405Z,1.45
2023-04-16T14:05:38.313Z,1.90
2023-04-16T14:08:07.206Z,1.80
2023-04-16T14:10:37.556Z,1.98
2023-04-16T14:13:06.469Z,2.05
2023-04-16T14:15:35.241Z,1.52
2023-04-16T14:18:04.116Z,1.70
2023-04-16T14:20:33.295Z,1.80
2023-04-16T14:23:02.124Z,1.70
2023-04-16T14:25:31.053Z,1.70
2023-04-16T14:28:02.200Z,1.48
2023-04-16T14:30:31.114Z,2.10
2023-04-16T14:33:00.159Z,1.88
2023-04-16T14:35:29.148Z,1.60
2023-04-16T14:37:58.483Z,2.10
2023-04-16T14:40:27.310Z,1.85
2023-04-16T14:42:56.063Z,1.88
2023-04-16T14:45:27.263Z,1.80
2023-04-16T14:47:56.146Z,1.85
2023-04-16T14:50:24.973Z,1.98
2023-04-16T14:52:54.732Z,1.70
2023-04-16T14:55:23.497Z,1.70
2023-04-16T14:57:52.324Z,1.50
2023-04-16T15:00:23.027Z,1.52
2023-04-16T15:02:53.549Z,1.50
2023-04-16T15:05:22.420Z,1.50
2023-04-16T15:07:51.494Z,1.60
2023-04-16T15:10:20.434Z,2.10
2023-04-16T15:12:49.132Z,3.30
2023-04-16T15:15:18.044Z,1.80
2023-04-16T15:17:47.075Z,1.83
2023-04-16T15:20:18.072Z,1.83
2023-04-16T15:22:46.842Z,1.83
2023-04-16T15:25:15.908Z,1.95
2023-04-16T15:27:44.734Z,1.67
2023-04-16T15:30:14.333Z,1.83
2023-04-16T15:32:44.745Z,1.50
2023-04-16T15:35:14.680Z,1.50
2023-04-16T15:37:44.907Z,1.45
2023-04-16T15:40:16.077Z,1.80
2023-04-16T15:42:45.269Z,1.63
2023-04-16T15:45:14.094Z,1.70
2023-04-16T15:47:43.326Z,1.60
2023-04-16T15:50:12.499Z,1.63
2023-04-16T15:52:41.689Z,1.70
2023-04-16T15:55:12.147Z,1.88
2023-04-16T15:57:40.903Z,1.73
2023-04-16T16:00:14.006Z,1.80
2023-04-16T16:02:43.294Z,1.55
2023-04-16T16:05:13.513Z,1.63
2023-04-16T16:07:42.869Z,1.48
2023-04-16T16:10:14.335Z,1.77
2023-04-16T16:12:43.172Z,1.67
2023-04-16T16:15:12.131Z,1.67
2023-04-16T16:17:42.350Z,1.65
2023-04-16T16:20:12.961Z,1.30
2023-04-16T16:22:43.257Z,1.27
2023-04-16T16:25:13.441Z,1.20
2023-04-16T16:27:42.277Z,1.30
2023-04-16T16:30:12.158Z,1.27
2023-04-16T16:32:43.195Z,1.30
2023-04-16T16:35:12.839Z,1.63
2023-04-16T16:37:41.565Z,1.30
2023-04-16T16:40:12.925Z,1.42
2023-04-16T16:42:41.824Z,1.60
2023-04-16T16:45:11.830Z,1.20
2023-04-16T16:47:40.726Z,1.42
2023-04-16T16:50:11.606Z,1.85
2023-04-16T16:52:40.498Z,1.65
2023-04-16T16:55:11.294Z,2.08
2023-04-16T16:57:41.962Z,1.58
2023-04-16T17:00:14.411Z,1.50
2023-04-16T17:02:43.738Z,1.33
2023-04-16T17:05:13.099Z,1.30
2023-04-16T17:07:43.284Z,1.40
2023-04-16T17:10:13.542Z,1.73
2023-04-16T17:12:43.746Z,1.88
2023-04-16T17:15:13.410Z,1.65
2023-04-16T17:17:42.277Z,1.65
2023-04-16T17:20:12.612Z,1.60
2023-04-16T17:22:41.500Z,1.73
2023-04-16T17:25:10.939Z,1.50
2023-04-16T17:27:39.750Z,1.70
2023-04-16T17:30:11.157Z,2.08
2023-04-16T17:32:40.046Z,2.28
2023-04-16T17:35:10.114Z,4.70
2023-04-16T17:37:39.111Z,2.50
2023-04-16T17:40:10.183Z,1.90
2023-04-16T17:42:39.138Z,2.35
2023-04-16T17:45:10.570Z,2.33
2023-04-16T17:47:39.441Z,1.90
2023-04-16T17:50:09.443Z,3.22
2023-04-16T17:52:38.531Z,3.22
2023-04-16T17:55:08.364Z,2.53
2023-04-16T17:57:37.409Z,1.90
2023-04-16T18:00:10.555Z,1.95
2023-04-16T18:02:44.003Z,1.85
2023-04-16T18:05:13.403Z,2.53
2023-04-16T18:07:43.829Z,2.85
2023-04-16T18:10:12.711Z,2.67
2023-04-16T18:12:41.559Z,2.42
2023-04-16T18:15:12.741Z,2.60
2023-04-16T18:17:42.934Z,2.67
2023-04-16T18:20:16.898Z,3.20
2023-04-16T18:22:47.342Z,2.85
2023-04-16T18:25:16.493Z,3.65
2023-04-16T18:27:45.890Z,2.97
2023-04-16T18:30:22.039Z,2.45
2023-04-16T18:33:19.534Z,2.80
2023-04-16T18:35:44.668Z,2.25
2023-04-16T18:38:13.816Z,2.28
2023-04-16T18:40:42.679Z,2.97
2023-04-16T18:43:11.625Z,2.53
2023-04-16T18:45:40.377Z,2.63
2023-04-16T18:48:10.678Z,3.10
2023-04-16T18:50:39.415Z,2.40
2023-04-16T18:53:08.219Z,2.57
2023-04-16T18:55:36.926Z,2.77
2023-04-16T18:58:05.761Z,4.40
2023-04-16T19:00:34.612Z,3.43
2023-04-16T19:03:07.006Z,4.13
2023-04-16T19:05:37.738Z,3.57
2023-04-16T19:08:06.940Z,3.63
2023-04-16T19:10:36.589Z,3.53
2023-04-16T19:13:05.400Z,3.50
2023-04-16T19:15:34.983Z,3.10
2023-04-16T19:18:04.066Z,4.60
2023-04-16T19:20:37.301Z,6.45
2023-04-16T19:23:09.344Z,6.63
2023-04-16T19:25:38.174Z,6.87
2023-04-16T19:28:07.173Z,8.17
2023-04-16T19:30:35.888Z,8.17
2023-04-16T19:33:04.798Z,10.50
2023-04-16T19:35:34.729Z,9.50
2023-04-16T19:38:04.958Z,7.30
2023-04-16T19:40:33.755Z,7.90
2023-04-16T19:43:02.550Z,9.60
2023-04-16T19:45:31.526Z,9.23
2023-04-16T19:48:00.432Z,8.57
2023-04-16T19:50:29.300Z,10.40
2023-04-16T19:52:58.110Z,12.40
2023-04-16T19:55:29.355Z,10.67
2023-04-16T19:57:59.780Z,10.23
2023-04-16T20:00:28.693Z,11.73
2023-04-16T20:02:57.496Z,12.63
2023-04-16T20:05:27.311Z,12.17
2023-04-16T20:07:56.287Z,13.00
2023-04-16T20:10:26.182Z,12.03
2023-04-16T20:12:56.528Z,10.67
2023-04-16T20:15:25.297Z,10.47
2023-04-16T20:17:55.460Z,11.00
2023-04-16T20:20:25.725Z,11.97
2023-04-16T20:22:54.481Z,10.83
2023-04-16T20:25:27.394Z,8.83
2023-04-16T20:27:57.698Z,9.57
2023-04-16T20:30:29.460Z,8.93
2023-04-16T20:32:58.657Z,9.40
2023-04-16T20:35:27.547Z,8.77
2023-04-16T20:37:56.272Z,7.80
2023-04-16T20:40:30.612Z,7.00
2023-04-16T20:43:02.410Z,6.90
2023-04-16T20:45:38.199Z,6.30
2023-04-16T20:48:07.372Z,6.60
2023-04-16T20:50:36.308Z,7.00
2023-04-16T20:53:05.026Z,6.53
2023-04-16T20:55:33.752Z,6.70
2023-04-16T20:58:04.275Z,6.90
2023-04-16T21:00:33.138Z,7.13
2023-04-16T21:03:02.022Z,7.03
2023-04-16T21:05:31.200Z,6.60
2023-04-16T21:08:00.029Z,7.50
2023-04-16T21:10:29.540Z,6.97
2023-04-16T21:12:58.330Z,7.07
2023-04-16T21:15:28.542Z,8.00
2023-04-16T21:17:57.440Z,6.57
2023-04-16T21:20:27.023Z,6.03
2023-04-16T21:22:57.127Z,6.47
2023-04-16T21:25:26.231Z,7.57
2023-04-16T21:27:54.909Z,7.30
2023-04-16T21:30:23.879Z,7.50
2023-04-16T21:32:54.124Z,6.20
2023-04-16T21:35:22.886Z,5.80
2023-04-16T21:37:51.648Z,5.40
2023-04-16T21:40:20.688Z,5.23
2023-04-16T21:42:49.486Z,5.20
2023-04-16T21:45:18.309Z,5.80
2023-04-16T21:47:47.137Z,5.83
2023-04-16T21:50:17.360Z,5.20
2023-04-16T21:52:47.336Z,5.37
2023-04-16T21:55:16.167Z,4.80
2023-04-16T21:57:44.950Z,5.10
2023-04-16T22:00:14.819Z,4.80
2023-04-16T22:02:44.024Z,5.30
2023-04-16T22:05:13.953Z,4.90
2023-04-16T22:07:44.149Z,5.10
2023-04-16T22:10:15.018Z,4.97
2023-04-16T22:12:45.140Z,5.10
2023-04-16T22:15:14.711Z,4.70
2023-04-16T22:17:43.488Z,4.90
2023-04-16T22:20:13.267Z,4.63
2023-04-16T22:22:44.082Z,4.60
2023-04-16T22:25:13.058Z,3.97
2023-04-16T22:27:41.903Z,4.63
2023-04-16T22:30:11.609Z,4.20
2023-04-16T22:32:40.397Z,4.30
2023-04-16T22:35:10.149Z,4.07
2023-04-16T22:37:38.899Z,4.33
2023-04-16T22:40:11.348Z,3.80
2023-04-16T22:42:40.121Z,3.27
2023-04-16T22:45:09.649Z,3.57
2023-04-16T22:47:38.764Z,3.10
2023-04-16T22:50:10.929Z,3.00
2023-04-16T22:52:39.716Z,3.27
2023-04-16T22:55:10.964Z,3.47
2023-04-16T22:57:39.732Z,3.10
2023-04-16T23:00:17.402Z,3.13
2023-04-16T23:02:46.675Z,3.23
2023-04-16T23:05:16.041Z,3.00
2023-04-16T23:07:44.738Z,3.07
2023-04-16T23:10:14.920Z,2.90
2023-04-16T23:12:43.692Z,3.00
2023-04-16T23:15:12.897Z,2.83
2023-04-16T23:17:41.876Z,2.80
2023-04-16T23:20:12.401Z,2.83
2023-04-16T23:22:41.546Z,3.23
2023-04-16T23:25:11.214Z,3.07
2023-04-16T23:27:41.835Z,3.27
2023-04-16T23:30:11.335Z,3.07
2023-04-16T23:32:40.113Z,3.37
2023-04-16T23:35:10.071Z,2.93
2023-04-16T23:37:38.884Z,3.20
2023-04-16T23:40:09.169Z,2.70
2023-04-16T23:42:37.849Z,3.30
2023-04-16T23:45:09.289Z,3.10
2023-04-16T23:47:38.013Z,3.10
2023-04-16T23:50:07.914Z,2.73
2023-04-16T23:52:37.338Z,3.10
2023-04-16T23:55:06.813Z,3.20
2023-04-16T23:57:35.538Z,3.20
